createdAt,value
2019-02-20T00:01:56.565Z,59.60
2019-02-20T00:04:24.906Z,58.37
2019-02-20T00:06:57.362Z,60.83
2019-02-20T00:09:25.668Z,59.97
2019-02-20T00:11:54.379Z,60.90
2019-02-20T00:14:22.951Z,53.37
2019-02-20T00:16:51.752Z,47.77
2019-02-20T00:19:20.343Z,50.33
2019-02-20T00:21:49.114Z,46.33
2019-02-20T00:24:17.398Z,50.33
2019-02-20T00:26:45.971Z,53.03
2019-02-20T00:29:14.259Z,54.40
2019-02-20T00:31:42.557Z,53.80
2019-02-20T00:34:10.850Z,67.87
2019-02-20T00:36:39.492Z,71.33
2019-02-20T00:39:08.949Z,69.53
2019-02-20T00:41:37.578Z,71.30
2019-02-20T00:44:07.528Z,75.73
2019-02-20T00:46:37.815Z,79.47
2019-02-20T00:49:08.049Z,81.33
2019-02-20T00:51:50.381Z,78.13
2019-02-20T00:54:18.936Z,78.60
2019-02-20T00:56:47.511Z,78.83
2019-02-20T00:59:16.942Z,75.40
2019-02-20T01:01:45.705Z,74.70
2019-02-20T01:04:13.994Z,75.60
2019-02-20T01:06:45.320Z,78.00
2019-02-20T01:09:12.899Z,76.90
2019-02-20T01:11:43.060Z,66.87
2019-02-20T01:14:11.697Z,69.97
2019-02-20T01:16:39.983Z,87.07
2019-02-20T01:19:08.568Z,96.10
2019-02-20T01:21:37.148Z,103.80
2019-02-20T01:24:05.456Z,107.57
2019-02-20T01:26:34.127Z,109.27
2019-02-20T01:29:02.506Z,120.00
2019-02-20T01:31:30.881Z,138.40
2019-02-20T01:33:59.196Z,85.50
2019-02-20T01:36:27.500Z,80.47
2019-02-20T01:38:56.199Z,85.57
2019-02-20T01:41:24.782Z,90.57
2019-02-20T01:43:53.088Z,87.47
2019-02-20T01:46:21.643Z,92.63
2019-02-20T01:48:49.940Z,96.67
2019-02-20T01:51:18.314Z,103.87
2019-02-20T01:53:46.603Z,116.47
2019-02-20T01:56:15.159Z,126.07
2019-02-20T01:58:44.449Z,109.73
2019-02-20T02:01:12.822Z,107.63
2019-02-20T02:03:41.114Z,114.47
2019-02-20T02:06:09.419Z,111.33
2019-02-20T02:08:38.080Z,115.60
2019-02-20T02:11:06.626Z,113.30
2019-02-20T02:13:34.914Z,111.83
2019-02-20T02:16:03.213Z,110.97
2019-02-20T02:18:31.802Z,112.00
2019-02-20T02:21:00.482Z,108.27
2019-02-20T02:23:29.069Z,107.90
2019-02-20T02:25:57.402Z,109.17
2019-02-20T02:28:25.704Z,105.80
2019-02-20T02:30:54.005Z,103.20
2019-02-20T02:33:22.371Z,102.93
2019-02-20T02:35:50.688Z,101.43
2019-02-20T02:38:18.982Z,100.13
2019-02-20T02:40:47.631Z,102.77
2019-02-20T02:43:15.926Z,98.23
2019-02-20T02:45:44.609Z,95.33
2019-02-20T02:48:12.991Z,97.00
2019-02-20T02:50:41.326Z,96.40
2019-02-20T02:53:09.684Z,94.23
2019-02-20T02:55:38.300Z,94.30
2019-02-20T02:58:06.885Z,91.10
2019-02-20T03:00:35.261Z,90.20
2019-02-20T03:03:03.809Z,90.77
2019-02-20T03:05:32.206Z,91.27
2019-02-20T03:08:00.912Z,88.07
2019-02-20T03:10:29.200Z,85.53
2019-02-20T03:12:57.778Z,85.47
2019-02-20T03:15:26.070Z,86.30
2019-02-20T03:17:54.369Z,86.87
2019-02-20T03:20:23.021Z,84.13
2019-02-20T03:22:51.321Z,83.60
2019-02-20T03:25:20.084Z,82.57
2019-02-20T03:27:48.661Z,85.77
2019-02-20T03:30:16.955Z,82.03
2019-02-20T03:32:45.354Z,81.30
2019-02-20T03:35:13.909Z,80.63
2019-02-20T03:37:42.612Z,78.40
2019-02-20T03:40:10.951Z,77.60
2019-02-20T03:42:39.377Z,74.67
2019-02-20T03:45:07.859Z,78.10
2019-02-20T03:47:36.524Z,75.67
2019-02-20T03:50:06.007Z,75.37
2019-02-20T03:52:34.318Z,73.93
2019-02-20T03:55:02.623Z,71.23
2019-02-20T03:57:30.905Z,73.87
2019-02-20T03:59:59.545Z,71.17
2019-02-20T04:02:27.893Z,72.60
2019-02-20T04:04:56.199Z,70.60
2019-02-20T04:07:24.512Z,70.13
2019-02-20T04:09:52.813Z,69.00
2019-02-20T04:12:21.200Z,66.73
2019-02-20T04:14:49.493Z,65.97
2019-02-20T04:17:17.807Z,65.73
2019-02-20T04:19:46.115Z,64.70
2019-02-20T04:22:14.433Z,66.33
2019-02-20T04:24:42.710Z,62.70
2019-02-20T04:27:11.026Z,63.77
2019-02-20T04:29:39.418Z,61.13
2019-02-20T04:32:07.793Z,61.73
2019-02-20T04:34:36.079Z,61.77
2019-02-20T04:37:04.711Z,60.80
2019-02-20T04:39:33.388Z,60.97
2019-02-20T04:42:01.678Z,59.70
2019-02-20T04:44:30.049Z,58.27
2019-02-20T04:46:58.334Z,58.40
2019-02-20T04:49:26.636Z,57.67
2019-02-20T04:51:55.015Z,58.03
2019-02-20T04:54:23.306Z,57.00
2019-02-20T04:56:51.943Z,55.13
2019-02-20T04:59:20.244Z,56.37
2019-02-20T05:01:48.626Z,55.73
2019-02-20T05:04:17.027Z,54.50
2019-02-20T05:06:45.323Z,53.70
2019-02-20T05:09:13.943Z,53.87
2019-02-20T05:11:45.594Z,54.47
2019-02-20T05:14:13.884Z,51.87
2019-02-20T05:16:42.189Z,52.87
2019-02-20T05:19:10.554Z,51.47
2019-02-20T05:21:39.114Z,49.73
2019-02-20T05:24:07.692Z,50.47
2019-02-20T05:26:36.867Z,50.03
2019-02-20T05:29:05.575Z,48.73
2019-02-20T05:31:33.878Z,49.60
2019-02-20T05:34:02.201Z,48.33
2019-02-20T05:36:30.823Z,47.33
2019-02-20T05:38:59.138Z,48.00
2019-02-20T05:41:27.492Z,46.03
2019-02-20T05:43:56.060Z,47.03
2019-02-20T05:46:24.363Z,45.37
2019-02-20T05:48:52.657Z,45.67
2019-02-20T05:51:21.187Z,45.70
2019-02-20T05:53:49.504Z,44.73
2019-02-20T05:56:17.850Z,43.23
2019-02-20T05:58:48.888Z,44.03
2019-02-20T06:01:17.471Z,42.77
2019-02-20T06:03:45.768Z,42.90
2019-02-20T06:06:14.446Z,41.53
2019-02-20T06:08:43.121Z,43.53
2019-02-20T06:11:14.755Z,40.43
2019-02-20T06:13:41.731Z,41.23
2019-02-20T06:16:10.031Z,42.50
2019-02-20T06:18:38.330Z,42.70
2019-02-20T06:21:06.657Z,40.13
2019-02-20T06:23:34.939Z,40.03
2019-02-20T06:26:03.592Z,39.93
2019-02-20T06:28:32.050Z,37.47
2019-02-20T06:31:00.686Z,39.93
2019-02-20T06:33:29.267Z,39.27
2019-02-20T06:35:57.547Z,37.40
2019-02-20T06:38:26.127Z,38.33
2019-02-20T10:54:06.856Z,60.60
2019-02-20T10:56:35.140Z,57.80
2019-02-20T10:59:03.589Z,55.37
2019-02-20T11:01:32.350Z,59.27
2019-02-20T11:04:00.651Z,61.00
2019-02-20T11:06:29.257Z,59.17
2019-02-20T11:08:57.840Z,57.17
2019-02-20T11:11:26.422Z,58.37
2019-02-20T11:13:54.717Z,56.93
2019-02-20T11:16:23.289Z,56.63
2019-02-20T11:18:51.568Z,53.90
2019-02-20T11:21:19.871Z,50.77
2019-02-20T11:23:54.169Z,49.83
2019-02-20T11:26:22.739Z,49.60
2019-02-20T11:28:51.015Z,49.30
2019-02-20T11:31:19.616Z,49.73
2019-02-20T11:33:48.288Z,46.17
2019-02-20T11:36:16.647Z,46.27
2019-02-20T11:38:45.260Z,47.13
2019-02-20T11:41:13.610Z,44.20
2019-02-20T11:43:42.023Z,43.23
2019-02-20T11:46:10.594Z,44.33
2019-02-20T11:48:38.899Z,43.93
2019-02-20T11:51:07.183Z,41.90
2019-02-20T11:53:37.438Z,41.40
2019-02-20T11:56:08.507Z,39.17
2019-02-20T11:58:36.834Z,38.30
2019-02-20T12:01:05.581Z,36.63
2019-02-20T12:03:34.159Z,37.83
2019-02-20T12:06:02.439Z,36.43
2019-02-20T12:08:30.750Z,33.10
2019-02-20T12:10:59.029Z,35.93
2019-02-20T12:13:27.570Z,33.37
2019-02-20T12:15:55.873Z,42.07
2019-02-20T12:18:24.441Z,42.60
2019-02-20T12:20:53.014Z,39.53
2019-02-20T12:23:21.334Z,38.27
2019-02-20T12:25:49.985Z,37.17
2019-02-20T12:28:18.283Z,35.70
2019-02-20T12:30:46.571Z,36.90
2019-02-20T12:33:14.853Z,34.53
2019-02-20T12:35:43.514Z,35.03
2019-02-20T12:38:11.811Z,32.40
2019-02-20T12:40:40.459Z,32.63
2019-02-20T12:43:08.739Z,31.60
2019-02-20T12:45:37.314Z,30.97
2019-02-20T12:48:05.602Z,31.07
2019-02-20T13:10:41.363Z,40.00
2019-02-20T13:13:21.231Z,38.77
2019-02-20T13:15:49.538Z,36.70
2019-02-20T13:18:17.943Z,36.97
2019-02-20T13:20:46.319Z,35.73
2019-02-20T13:23:14.641Z,35.80
2019-02-20T13:25:43.012Z,34.83
2019-02-20T13:28:11.324Z,34.73
2019-02-20T13:30:41.255Z,33.00
2019-02-20T13:33:09.807Z,33.33
2019-02-20T13:35:38.109Z,31.87
2019-02-20T13:38:09.023Z,30.97
2019-02-20T13:40:37.341Z,29.73
2019-02-20T13:43:32.818Z,29.77
2019-02-20T13:45:42.447Z,29.93
2019-02-20T13:48:12.042Z,28.40
2019-02-20T13:50:40.843Z,28.07
2019-02-20T13:53:09.464Z,27.57
2019-02-20T13:55:38.123Z,26.30
2019-02-20T13:58:06.433Z,26.03
2019-02-20T14:00:37.319Z,25.70
2019-02-20T14:03:05.892Z,25.10
2019-02-20T14:05:34.248Z,26.63
2019-02-20T14:08:02.975Z,24.27
2019-02-20T14:10:31.270Z,22.80
2019-02-20T14:12:59.940Z,23.07
2019-02-20T14:15:28.259Z,21.50
2019-02-20T14:17:56.554Z,22.07
2019-02-20T14:20:25.109Z,20.93
2019-02-20T14:22:53.759Z,21.40
2019-02-20T14:25:22.119Z,20.20
2019-02-20T14:27:52.867Z,20.53
2019-02-20T14:30:21.579Z,20.53
2019-02-20T14:32:49.958Z,20.23
2019-02-20T14:35:18.726Z,19.13
2019-02-20T14:37:47.417Z,19.40
2019-02-20T14:40:16.101Z,17.07
2019-02-20T14:42:44.383Z,18.23
2019-02-20T14:45:15.479Z,17.70
2019-02-20T14:47:44.104Z,17.93
2019-02-20T14:50:12.779Z,17.13
2019-02-20T14:52:41.342Z,18.57
2019-02-20T14:55:10.564Z,16.67
2019-02-20T14:57:38.946Z,16.43
2019-02-20T15:00:12.731Z,16.23
2019-02-20T15:02:41.107Z,14.93
2019-02-20T15:05:09.415Z,15.23
2019-02-20T15:07:38.512Z,13.80
2019-02-20T15:10:08.647Z,15.13
2019-02-20T15:12:37.214Z,14.20
2019-02-20T15:15:13.579Z,13.73
2019-02-20T15:17:41.934Z,13.33
2019-02-20T15:20:11.302Z,13.17
2019-02-20T15:22:39.734Z,13.17
2019-02-20T15:25:09.082Z,28.60
2019-02-20T15:27:37.462Z,20.30
2019-02-20T15:30:12.557Z,22.23
2019-02-20T15:32:41.242Z,17.50
2019-02-20T15:35:09.928Z,15.93
2019-02-20T15:37:38.307Z,15.87
2019-02-20T15:40:09.191Z,15.50
2019-02-20T15:42:37.554Z,15.10
2019-02-20T15:45:08.462Z,16.13
2019-02-20T15:47:36.999Z,15.20
2019-02-20T15:50:11.258Z,15.53
2019-02-20T15:52:39.846Z,13.20
2019-02-20T15:55:11.335Z,14.03
2019-02-20T15:57:40.095Z,13.60
2019-02-20T16:00:16.034Z,14.10
2019-02-20T16:02:44.784Z,13.97
2019-02-20T16:05:13.836Z,14.60
2019-02-20T16:07:42.191Z,15.00
2019-02-20T16:10:11.298Z,19.70
2019-02-20T16:12:39.585Z,18.93
2019-02-20T16:15:10.584Z,19.07
2019-02-20T16:17:39.296Z,19.03
2019-02-20T16:20:10.594Z,17.77
2019-02-20T16:22:39.231Z,18.10
2019-02-20T16:25:12.878Z,17.33
2019-02-20T16:27:46.800Z,17.33
2019-02-20T16:30:14.497Z,16.37
2019-02-20T16:32:43.195Z,17.70
2019-02-20T16:35:12.144Z,16.50
2019-02-20T16:37:40.553Z,15.77
2019-02-20T16:40:12.153Z,15.27
2019-02-20T16:42:40.807Z,15.20
2019-02-20T16:45:12.385Z,17.30
2019-02-20T16:47:40.944Z,16.17
2019-02-20T16:50:09.632Z,16.33
2019-02-20T16:52:38.314Z,18.77
2019-02-20T16:55:07.262Z,18.57
2019-02-20T16:57:35.891Z,18.97
2019-02-20T17:00:06.235Z,18.80
2019-02-20T17:02:34.839Z,18.07
2019-02-20T17:05:03.720Z,16.93
2019-02-20T17:07:32.708Z,19.13
2019-02-20T17:10:01.413Z,25.43
2019-02-20T17:12:30.446Z,21.57
2019-02-20T17:14:58.869Z,23.43
2019-02-20T17:17:27.317Z,25.07
2019-02-20T17:19:56.047Z,27.53
2019-02-20T17:22:24.930Z,29.80
2019-02-20T17:24:53.550Z,31.10
2019-02-20T17:27:22.362Z,29.40
2019-02-20T17:29:50.766Z,30.30
2019-02-20T17:32:19.367Z,30.67
2019-02-20T17:34:48.380Z,28.97
2019-02-20T17:37:17.046Z,29.00
2019-02-20T17:39:45.791Z,27.30
2019-02-20T17:42:15.808Z,27.50
2019-02-20T17:44:44.232Z,26.67
2019-02-20T17:47:12.958Z,34.80
2019-02-20T17:49:41.603Z,34.67
2019-02-20T17:52:09.925Z,35.37
2019-02-20T17:54:38.591Z,43.20
2019-02-20T17:57:07.243Z,40.70
2019-02-20T17:59:35.582Z,41.87
2019-02-20T18:02:03.970Z,42.73
2019-02-20T18:04:32.596Z,43.23
2019-02-20T18:07:00.903Z,45.63
2019-02-20T18:09:29.187Z,63.13
2019-02-20T18:11:57.519Z,60.10
2019-02-20T18:14:25.837Z,61.90
2019-02-20T18:16:54.205Z,58.03
2019-02-20T18:19:23.988Z,55.37
2019-02-20T18:21:52.329Z,54.70
2019-02-20T18:24:20.957Z,52.03
2019-02-20T18:26:49.320Z,51.73
2019-02-20T18:29:17.919Z,49.63
2019-02-20T18:31:46.515Z,42.13
2019-02-20T18:34:14.822Z,42.33
2019-02-20T18:36:43.484Z,41.63
2019-02-20T18:39:12.190Z,48.90
2019-02-20T18:41:40.551Z,48.87
2019-02-20T18:44:08.841Z,53.17
2019-02-20T18:46:38.764Z,46.80
2019-02-20T18:49:07.513Z,47.20
2019-02-20T18:51:36.109Z,53.57
2019-02-20T18:54:04.780Z,56.63
2019-02-20T18:56:34.145Z,57.37
2019-02-20T18:59:03.005Z,59.67
2019-02-20T19:01:31.370Z,57.53
2019-02-20T19:03:59.742Z,56.93
2019-02-20T19:06:28.249Z,54.67
2019-02-20T19:08:57.066Z,54.77
2019-02-20T19:11:31.305Z,53.63
2019-02-20T19:14:17.803Z,50.23
2019-02-20T19:16:58.275Z,48.63
2019-02-20T19:19:41.823Z,73.33
2019-02-20T19:22:22.751Z,79.77
2019-02-20T19:24:57.428Z,78.23
2019-02-20T19:27:38.286Z,90.43
2019-02-20T19:30:13.253Z,86.93
2019-02-20T19:32:56.575Z,84.07
2019-02-20T19:35:31.395Z,80.30
2019-02-20T19:38:32.226Z,75.63
2019-02-20T19:41:20.454Z,72.20
2019-02-20T19:43:58.268Z,65.03
2019-02-20T19:46:46.734Z,70.70
2019-02-20T19:49:24.312Z,70.60
2019-02-20T19:51:56.209Z,66.47
2019-02-20T19:54:30.682Z,68.87
2019-02-20T19:57:02.242Z,61.27
2019-02-20T19:59:50.431Z,57.53
2019-02-20T20:02:38.511Z,62.87
2019-02-20T20:05:40.378Z,71.10
2019-02-20T20:08:23.569Z,73.70
2019-02-20T20:11:12.872Z,98.07
2019-02-20T20:13:55.946Z,82.33
2019-02-20T20:16:39.293Z,79.73
2019-02-20T20:19:19.821Z,77.53
2019-02-20T20:22:11.614Z,76.17
2019-02-20T20:24:49.467Z,77.20
2019-02-20T20:27:29.683Z,76.27
2019-02-20T20:30:20.959Z,74.87
2019-02-20T20:32:56.412Z,71.43
2019-02-20T20:35:40.075Z,68.60
2019-02-20T20:38:26.196Z,68.47
2019-02-20T20:41:13.238Z,72.20
2019-02-20T20:43:58.626Z,66.83
2019-02-20T20:46:49.959Z,68.93
2019-02-20T20:49:29.474Z,73.33
2019-02-20T20:52:21.959Z,74.47
2019-02-20T20:55:10.342Z,110.70
2019-02-20T20:57:57.267Z,95.33
2019-02-20T21:01:02.455Z,92.37
2019-02-20T21:03:34.001Z,89.83
2019-02-20T21:06:20.844Z,83.83
2019-02-20T21:08:52.549Z,82.43
2019-02-20T21:11:33.290Z,79.83
2019-02-20T21:14:05.114Z,71.50
2019-02-20T21:16:51.841Z,69.77
2019-02-20T21:19:42.612Z,66.13
2019-02-20T21:22:37.851Z,65.70
2019-02-20T21:25:27.760Z,70.33
2019-02-20T21:28:11.502Z,69.30
2019-02-20T21:30:52.252Z,70.03
2019-02-20T21:33:40.407Z,83.70
2019-02-20T21:36:17.887Z,86.17
2019-02-20T21:38:58.438Z,88.23
2019-02-20T21:41:30.328Z,80.90
2019-02-20T21:44:01.881Z,78.37
2019-02-20T21:46:52.146Z,87.63
2019-02-20T21:49:48.176Z,85.23
2019-02-20T21:52:31.917Z,80.27
2019-02-20T21:55:06.692Z,73.53
2019-02-20T21:57:44.351Z,76.33
2019-02-20T22:00:17.424Z,74.77
2019-02-20T22:02:49.757Z,75.20
2019-02-20T22:05:36.894Z,73.47
2019-02-20T22:08:31.001Z,68.53
2019-02-20T22:11:29.618Z,66.17
2019-02-20T22:14:19.055Z,60.07
2019-02-20T22:17:05.614Z,60.10
2019-02-20T22:19:54.324Z,75.40
2019-02-20T22:22:49.650Z,78.00
2019-02-20T22:25:50.067Z,111.60
2019-02-20T22:28:39.411Z,94.37
2019-02-20T22:31:13.975Z,91.13
2019-02-20T22:33:48.675Z,82.33
2019-02-20T22:36:46.374Z,75.33
2019-02-20T22:39:32.883Z,78.07
2019-02-20T22:42:10.222Z,74.57
2019-02-20T22:45:00.419Z,75.50
2019-02-20T22:47:44.003Z,76.20
2019-02-20T22:50:24.091Z,73.97
2019-02-20T22:53:01.214Z,75.00
2019-02-20T22:55:52.046Z,69.10
2019-02-20T22:58:26.742Z,79.80
2019-02-20T23:01:13.428Z,88.50
2019-02-20T23:04:19.737Z,98.33
2019-02-20T23:06:57.238Z,95.03
2019-02-20T23:09:46.034Z,93.67
2019-02-20T23:12:33.112Z,93.70
2019-02-20T23:15:01.692Z,91.03
2019-02-20T23:17:30.278Z,91.00
2019-02-20T23:19:58.586Z,89.37
2019-02-20T23:22:26.875Z,88.60
2019-02-20T23:24:55.198Z,109.40
2019-02-20T23:27:23.487Z,84.07
2019-02-20T23:29:51.787Z,104.23
2019-02-20T23:32:20.443Z,107.83
2019-02-20T23:34:48.748Z,109.07
2019-02-20T23:37:17.426Z,111.03
2019-02-20T23:39:46.093Z,106.47
2019-02-20T23:42:14.678Z,105.63
2019-02-20T23:44:43.276Z,106.13
2019-02-20T23:47:11.587Z,103.60
2019-02-20T23:49:39.875Z,99.77
2019-02-20T23:52:08.507Z,98.00
2019-02-20T23:54:37.081Z,93.40
2019-02-20T23:57:05.686Z,93.77
2019-02-20T23:59:34.001Z,109.83
